createdAt,value
2022-08-17T00:00:01.133Z,28.95
2022-08-17T00:02:28.098Z,30.38
2022-08-17T00:04:55.644Z,29.40
2022-08-17T00:07:23.023Z,30.48
2022-08-17T00:09:50.471Z,33.80
2022-08-17T00:12:43.379Z,31.70
2022-08-17T00:15:10.519Z,27.48
2022-08-17T00:17:38.216Z,26.85
2022-08-17T00:20:06.398Z,29.35
2022-08-17T00:22:36.445Z,29.55
2022-08-17T00:25:12.113Z,29.52
2022-08-17T00:27:39.381Z,29.95
2022-08-17T00:30:08.985Z,27.40
2022-08-17T00:33:13.838Z,31.90
2022-08-17T00:35:35.551Z,32.88
2022-08-17T00:38:04.986Z,38.47
2022-08-17T00:40:44.200Z,38.60
2022-08-17T00:43:54.504Z,34.53
2022-08-17T00:46:30.944Z,31.95
2022-08-17T00:49:00.371Z,36.90
2022-08-17T00:51:29.987Z,35.92
2022-08-17T00:54:17.295Z,32.60
2022-08-17T00:56:48.867Z,34.30
2022-08-17T00:59:21.919Z,31.35
2022-08-17T01:01:50.224Z,32.25
2022-08-17T01:04:20.153Z,32.00
2022-08-17T01:06:49.420Z,31.73
2022-08-17T01:09:17.855Z,33.83
2022-08-17T01:11:49.258Z,32.45
2022-08-17T01:14:16.154Z,34.70
2022-08-17T01:16:43.077Z,32.63
2022-08-17T01:19:20.280Z,33.33
2022-08-17T01:22:07.569Z,34.83
2022-08-17T01:24:36.401Z,37.67
2022-08-17T01:27:10.459Z,27.17
2022-08-17T01:29:47.099Z,36.75
2022-08-17T01:32:14.021Z,31.55
2022-08-17T01:34:43.599Z,33.70
2022-08-17T01:37:13.158Z,36.75
2022-08-17T01:39:52.479Z,34.25
2022-08-17T01:42:48.378Z,29.67
2022-08-17T01:45:23.542Z,33.10
2022-08-17T01:47:51.419Z,27.13
2022-08-17T01:50:22.961Z,34.35
2022-08-17T01:52:54.107Z,32.97
2022-08-17T01:55:27.509Z,30.88
2022-08-17T01:57:54.500Z,32.75
2022-08-17T02:00:21.715Z,33.83
2022-08-17T02:02:48.644Z,33.78
2022-08-17T02:05:17.380Z,36.45
2022-08-17T02:07:59.752Z,35.00
2022-08-17T02:10:33.992Z,32.42
2022-08-17T02:13:03.334Z,30.75
2022-08-17T02:15:30.617Z,29.27
2022-08-17T02:17:57.420Z,34.55
2022-08-17T02:20:42.480Z,32.90
2022-08-17T02:23:12.611Z,34.13
2022-08-17T02:25:43.385Z,33.05
2022-08-17T02:28:11.249Z,32.78
2022-08-17T02:31:01.048Z,30.25
2022-08-17T02:33:42.449Z,28.65
2022-08-17T02:36:12.910Z,30.42
2022-08-17T02:38:41.170Z,32.28
2022-08-17T02:41:08.674Z,27.50
2022-08-17T02:43:36.748Z,30.83
2022-08-17T02:46:03.782Z,31.73
2022-08-17T02:48:32.066Z,29.67
2022-08-17T02:51:00.697Z,31.88
2022-08-17T02:53:29.769Z,30.55
2022-08-17T02:56:03.807Z,27.35
2022-08-17T02:58:35.567Z,34.88
2022-08-17T03:01:05.538Z,33.85
2022-08-17T03:03:32.412Z,30.17
2022-08-17T03:05:59.288Z,30.63
2022-08-17T03:08:26.668Z,30.63
2022-08-17T03:10:54.063Z,30.48
2022-08-17T03:13:22.513Z,29.00
2022-08-17T03:15:50.548Z,32.50
2022-08-17T03:18:25.469Z,27.47
2022-08-17T03:20:59.132Z,35.13
2022-08-17T03:23:27.478Z,30.83
2022-08-17T03:25:55.786Z,30.17
2022-08-17T03:28:25.059Z,35.33
2022-08-17T03:30:52.223Z,31.23
2022-08-17T03:33:19.957Z,31.95
2022-08-17T03:35:47.039Z,27.58
2022-08-17T03:38:17.011Z,31.65
2022-08-17T03:40:57.161Z,35.05
2022-08-17T03:43:30.118Z,31.75
2022-08-17T03:46:34.742Z,33.60
2022-08-17T03:49:26.027Z,34.60
2022-08-17T03:52:13.909Z,33.58
2022-08-17T03:55:00.763Z,34.42
2022-08-17T03:57:27.901Z,34.88
2022-08-17T03:59:55.303Z,33.95
2022-08-17T04:02:26.912Z,33.22
2022-08-17T04:04:54.254Z,29.90
2022-08-17T04:07:24.283Z,41.13
2022-08-17T04:09:51.267Z,33.70
2022-08-17T04:12:20.247Z,37.97
2022-08-17T04:17:28.598Z,32.95
2022-08-17T04:19:55.785Z,31.40
2022-08-17T04:22:30.997Z,34.15
2022-08-17T04:25:04.398Z,33.55
2022-08-17T04:27:31.416Z,33.78
2022-08-17T04:29:58.693Z,35.33
2022-08-17T04:33:04.668Z,34.70
2022-08-17T04:35:21.630Z,31.90
2022-08-17T04:37:48.612Z,33.80
2022-08-17T04:40:33.996Z,37.13
2022-08-17T04:43:18.799Z,36.53
2022-08-17T04:45:55.111Z,27.23
2022-08-17T04:48:36.420Z,34.38
2022-08-17T04:51:31.793Z,36.83
2022-08-17T04:54:01.902Z,34.67
2022-08-17T04:56:30.365Z,33.60
2022-08-17T04:59:03.422Z,33.78
2022-08-17T05:01:33.231Z,34.30
2022-08-17T05:04:21.016Z,32.88
2022-08-17T05:06:52.305Z,34.08
2022-08-17T05:09:19.399Z,34.55
2022-08-17T05:11:46.658Z,32.33
2022-08-17T05:14:14.562Z,27.10
2022-08-17T05:16:41.505Z,26.73
2022-08-17T05:19:08.433Z,35.25
2022-08-17T05:21:35.288Z,39.05
2022-08-17T05:24:03.725Z,34.85
2022-08-17T05:26:36.551Z,34.03
2022-08-17T05:29:04.683Z,34.58
2022-08-17T05:31:31.707Z,34.95
2022-08-17T05:33:59.012Z,40.03
2022-08-17T05:36:42.267Z,35.95
2022-08-17T05:39:16.564Z,30.98
2022-08-17T05:41:45.701Z,35.92
2022-08-17T05:44:12.607Z,32.88
2022-08-17T05:46:43.796Z,28.48
2022-08-17T05:49:11.894Z,38.10
2022-08-17T05:51:44.938Z,33.80
2022-08-17T05:54:45.870Z,36.53
2022-08-17T05:57:31.841Z,28.05
2022-08-17T06:00:22.135Z,36.63
2022-08-17T06:03:14.793Z,33.03
2022-08-17T06:05:55.300Z,33.30
2022-08-17T06:09:00.822Z,36.75
2022-08-17T06:11:27.691Z,27.05
2022-08-17T06:14:19.198Z,34.72
2022-08-17T06:16:51.012Z,37.00
2022-08-17T06:19:27.838Z,32.58
2022-08-17T06:21:55.934Z,35.90
2022-08-17T06:24:28.576Z,36.15
2022-08-17T06:27:07.024Z,29.20
2022-08-17T06:29:52.637Z,33.33
2022-08-17T06:32:19.632Z,32.95
2022-08-17T06:34:47.311Z,36.03
2022-08-17T06:37:32.581Z,30.30
2022-08-17T06:40:18.594Z,35.28
2022-08-17T06:43:26.959Z,38.72
2022-08-17T06:46:02.311Z,31.42
2022-08-17T06:48:42.720Z,33.35
2022-08-17T06:51:33.387Z,32.63
2022-08-17T06:54:10.371Z,33.08
2022-08-17T06:56:53.481Z,32.42
2022-08-17T06:59:36.304Z,29.80
2022-08-17T07:02:52.631Z,29.42
2022-08-17T07:05:51.376Z,30.42
2022-08-17T07:08:41.425Z,26.08
2022-08-17T07:11:14.301Z,28.15
2022-08-17T07:14:03.256Z,27.20
2022-08-17T07:16:46.796Z,31.75
2022-08-17T07:19:16.845Z,29.05
2022-08-17T07:22:14.003Z,27.58
2022-08-17T07:24:58.531Z,30.27
2022-08-17T07:27:28.494Z,26.92
2022-08-17T07:30:00.868Z,26.38
2022-08-17T07:32:31.769Z,24.80
2022-08-17T07:35:04.542Z,28.02
2022-08-17T07:37:33.389Z,27.40
2022-08-17T07:40:20.503Z,20.73
2022-08-17T07:43:21.783Z,22.02
2022-08-17T07:46:24.480Z,26.02
2022-08-17T07:48:55.173Z,24.38
2022-08-17T07:51:31.234Z,23.80
2022-08-17T07:54:22.837Z,25.80
2022-08-17T07:56:55.344Z,25.98
2022-08-17T07:59:34.749Z,24.05
2022-08-17T08:02:16.318Z,23.77
2022-08-17T08:05:00.720Z,24.23
2022-08-17T08:07:50.481Z,23.15
2022-08-17T08:10:45.330Z,23.95
2022-08-17T08:13:15.242Z,21.80
2022-08-17T08:15:54.105Z,22.70
2022-08-17T08:18:54.423Z,19.17
2022-08-17T08:21:37.923Z,22.20
2022-08-17T08:24:35.481Z,22.63
2022-08-17T08:27:30.833Z,20.58
2022-08-17T08:30:14.451Z,23.13
2022-08-17T08:33:23.307Z,23.25
2022-08-17T08:36:10.777Z,25.13
2022-08-17T08:38:58.613Z,20.90
2022-08-17T08:41:45.344Z,19.45
2022-08-17T08:45:00.282Z,20.35
2022-08-17T08:47:32.097Z,22.02
2022-08-17T08:50:38.208Z,22.17
2022-08-17T08:53:16.136Z,17.25
2022-08-17T08:55:42.964Z,23.10
2022-08-17T08:58:32.007Z,18.15
2022-08-17T09:01:17.052Z,20.85
2022-08-17T09:04:19.620Z,23.42
2022-08-17T09:07:04.385Z,27.52
2022-08-17T09:09:49.485Z,21.85
2022-08-17T09:12:57.849Z,21.88
2022-08-17T09:15:37.933Z,22.13
2022-08-17T09:19:01.132Z,20.42
2022-08-17T09:21:10.271Z,22.35
2022-08-17T09:24:00.218Z,22.08
2022-08-17T09:26:39.504Z,19.08
2022-08-17T09:29:11.298Z,21.48
2022-08-17T09:32:03.822Z,20.38
2022-08-17T09:34:39.919Z,22.30
2022-08-17T09:37:28.553Z,20.90
2022-08-17T09:40:02.243Z,19.10
2022-08-17T09:42:42.614Z,21.40
2022-08-17T09:45:51.171Z,20.30
2022-08-17T09:48:41.728Z,17.92
2022-08-17T09:51:23.033Z,21.27
2022-08-17T09:53:51.296Z,20.80
2022-08-17T09:56:32.129Z,19.92
2022-08-17T09:59:17.847Z,20.67
2022-08-17T10:01:55.574Z,22.27
2022-08-17T10:04:37.498Z,21.25
2022-08-17T10:07:14.787Z,21.92
2022-08-17T10:10:02.941Z,23.88
2022-08-17T10:12:45.170Z,20.42
2022-08-17T10:15:29.132Z,19.60
2022-08-17T10:18:14.368Z,19.70
2022-08-17T10:21:24.714Z,19.35
2022-08-17T10:24:18.429Z,20.48
2022-08-17T10:26:56.864Z,18.92
2022-08-17T10:29:47.376Z,19.80
2022-08-17T10:32:35.354Z,17.83
2022-08-17T10:35:27.354Z,17.73
2022-08-17T10:38:16.596Z,15.73
2022-08-17T10:41:00.827Z,16.65
2022-08-17T10:43:57.838Z,14.35
2022-08-17T10:46:48.398Z,15.93
2022-08-17T10:49:25.840Z,18.48
2022-08-17T10:51:55.348Z,15.23
2022-08-17T10:54:25.163Z,19.17
2022-08-17T10:56:54.280Z,17.40
2022-08-17T10:59:36.325Z,18.23
2022-08-17T11:02:12.321Z,18.40
2022-08-17T11:05:07.621Z,16.75
2022-08-17T11:08:15.857Z,17.98
2022-08-17T11:10:57.973Z,18.15
2022-08-17T11:13:35.402Z,19.48
2022-08-17T11:16:32.938Z,19.92
2022-08-17T11:19:18.732Z,19.60
2022-08-17T11:21:52.047Z,20.48
2022-08-17T11:24:36.551Z,19.95
2022-08-17T11:27:12.064Z,18.40
2022-08-17T11:29:56.864Z,23.13
2022-08-17T11:32:47.189Z,24.50
2022-08-17T11:35:20.435Z,23.38
2022-08-17T11:37:50.420Z,22.40
2022-08-17T11:40:41.350Z,23.23
2022-08-17T11:43:21.149Z,22.73
2022-08-17T11:46:56.052Z,30.88
2022-08-17T11:50:01.726Z,26.70
2022-08-17T11:52:45.013Z,24.55
2022-08-17T11:55:36.380Z,26.30
2022-08-17T11:58:30.152Z,24.25
2022-08-17T12:01:22.800Z,23.67
2022-08-17T12:03:56.082Z,24.13
2022-08-17T12:06:30.197Z,27.90
2022-08-17T12:09:02.720Z,26.95
2022-08-17T12:12:01.579Z,28.77
2022-08-17T12:15:05.872Z,25.92
2022-08-17T12:17:39.695Z,26.17
2022-08-17T12:20:14.721Z,30.45
2022-08-17T12:23:01.229Z,30.77
2022-08-17T12:25:40.783Z,30.67
2022-08-17T12:28:26.477Z,32.78
2022-08-17T12:30:53.648Z,28.88
2022-08-17T12:33:28.435Z,29.08
2022-08-17T12:36:05.831Z,30.98
2022-08-17T12:38:36.182Z,29.27
2022-08-17T12:41:24.741Z,33.17
2022-08-17T12:44:12.294Z,31.00
2022-08-17T12:46:56.210Z,28.73
2022-08-17T12:49:30.942Z,30.13
2022-08-17T12:52:05.742Z,33.00
2022-08-17T12:54:41.360Z,37.15
2022-08-17T12:57:42.053Z,34.28
2022-08-17T13:00:12.493Z,37.58
2022-08-17T13:02:44.825Z,34.70
2022-08-17T13:05:25.013Z,39.95
2022-08-17T13:07:53.389Z,32.08
2022-08-17T13:10:34.264Z,44.75
2022-08-17T13:13:23.687Z,41.22
2022-08-17T13:16:09.487Z,39.67
2022-08-17T13:18:42.035Z,39.47
2022-08-17T13:21:23.840Z,44.22
2022-08-17T13:24:13.801Z,39.83
2022-08-17T13:26:48.638Z,40.40
2022-08-17T13:29:51.219Z,39.17
2022-08-17T13:32:33.866Z,37.20
2022-08-17T13:35:14.993Z,35.92
2022-08-17T13:38:01.333Z,47.40
2022-08-17T13:40:37.955Z,43.00
2022-08-17T13:43:05.353Z,48.00
2022-08-17T13:45:44.088Z,41.78
2022-08-17T13:48:28.168Z,37.28
2022-08-17T13:50:55.049Z,45.90
2022-08-17T13:53:24.898Z,45.67
2022-08-17T13:55:59.773Z,38.00
2022-08-17T13:58:30.799Z,44.63
2022-08-17T14:00:57.917Z,31.88
2022-08-17T14:03:25.196Z,43.85
2022-08-17T14:05:52.791Z,41.65
2022-08-17T14:08:20.798Z,36.17
2022-08-17T14:10:58.424Z,35.33
2022-08-17T14:13:25.271Z,36.47
2022-08-17T14:15:55.428Z,38.70
2022-08-17T14:18:42.042Z,39.33
2022-08-17T14:21:10.639Z,32.75
2022-08-17T14:23:37.667Z,35.60
2022-08-17T14:26:05.264Z,39.63
2022-08-17T14:28:32.187Z,29.70
2022-08-17T14:31:00.758Z,34.67
2022-08-17T14:33:29.353Z,35.65
2022-08-17T14:35:57.610Z,37.75
2022-08-17T14:38:24.748Z,33.35
2022-08-17T14:40:52.172Z,36.30
2022-08-17T14:43:20.873Z,36.08
2022-08-17T14:45:47.731Z,36.33
2022-08-17T14:48:14.658Z,34.78
2022-08-17T14:50:42.994Z,20.77
2022-08-17T14:53:12.725Z,10.13
2022-08-17T14:55:40.800Z,9.68
2022-08-17T14:58:09.160Z,13.00
2022-08-17T15:00:36.824Z,9.85
2022-08-17T15:03:03.995Z,9.35
2022-08-17T15:05:33.924Z,23.48
2022-08-17T15:08:02.210Z,58.75
2022-08-17T15:10:30.275Z,12.27
2022-08-17T15:12:57.820Z,9.33
2022-08-17T15:15:25.189Z,15.52
2022-08-17T15:17:52.631Z,11.65
2022-08-17T15:20:28.026Z,8.20
2022-08-17T15:22:56.190Z,11.63
2022-08-17T15:25:25.638Z,13.68
2022-08-17T15:27:52.886Z,31.58
2022-08-17T15:30:20.641Z,22.70
2022-08-17T15:32:54.361Z,11.60
2022-08-17T15:35:28.005Z,6.82
2022-08-17T15:38:07.995Z,7.32
2022-08-17T15:40:40.263Z,7.82
2022-08-17T15:43:11.376Z,12.48
2022-08-17T15:45:39.499Z,10.70
2022-08-17T15:48:06.435Z,16.47
2022-08-17T15:50:33.307Z,18.08
2022-08-17T15:53:01.607Z,14.73
2022-08-17T15:55:30.294Z,6.80
2022-08-17T15:57:57.272Z,5.60
2022-08-17T16:00:24.612Z,5.03
2022-08-17T16:03:45.757Z,6.85
2022-08-17T16:05:40.831Z,6.05
2022-08-17T16:08:08.098Z,6.43
2022-08-17T16:10:36.168Z,6.10
2022-08-17T16:13:04.274Z,6.28
2022-08-17T16:15:31.964Z,6.93
2022-08-17T16:17:59.452Z,7.00
2022-08-17T16:20:26.551Z,12.82
2022-08-17T16:22:54.185Z,8.02
2022-08-17T16:25:47.218Z,6.25
2022-08-17T16:28:15.967Z,7.25
2022-08-17T16:30:43.347Z,11.38
2022-08-17T16:33:15.086Z,10.18
2022-08-17T16:35:42.150Z,15.50
2022-08-17T16:38:09.491Z,9.73
2022-08-17T16:40:38.080Z,10.20
2022-08-17T16:43:10.438Z,10.65
2022-08-17T16:45:40.501Z,8.80
2022-08-17T16:48:09.486Z,10.55
2022-08-17T16:50:37.101Z,10.93
2022-08-17T16:53:06.845Z,8.95
2022-08-17T16:55:35.736Z,7.00
2022-08-17T16:58:08.738Z,9.07
2022-08-17T17:00:36.191Z,6.80
2022-08-17T17:03:33.651Z,7.97
2022-08-17T17:06:14.140Z,9.40
2022-08-17T17:09:06.236Z,8.52
2022-08-17T17:11:52.620Z,7.00
2022-08-17T17:14:43.043Z,6.50
2022-08-17T17:17:24.566Z,8.48
2022-08-17T17:20:02.791Z,5.72
2022-08-17T17:22:38.767Z,6.07
2022-08-17T17:25:15.452Z,6.60
2022-08-17T17:28:09.872Z,6.68
2022-08-17T17:31:05.715Z,9.23
2022-08-17T17:33:52.952Z,6.20
2022-08-17T17:36:32.976Z,8.30
2022-08-17T17:39:18.857Z,9.35
2022-08-17T17:41:59.261Z,12.10
2022-08-17T17:44:35.046Z,6.53
2022-08-17T17:47:03.721Z,7.70
2022-08-17T17:49:35.536Z,5.75
2022-08-17T17:52:13.387Z,6.63
2022-08-17T17:54:42.566Z,5.88
2022-08-17T17:57:21.345Z,7.85
2022-08-17T18:00:12.454Z,8.20
2022-08-17T18:02:58.946Z,7.03
2022-08-17T18:05:56.763Z,8.05
2022-08-17T18:08:36.179Z,5.28
2022-08-17T18:11:34.794Z,6.05
2022-08-17T18:14:24.182Z,6.30
2022-08-17T18:16:57.751Z,5.88
2022-08-17T18:19:28.087Z,6.78
2022-08-17T18:22:07.993Z,7.47
2022-08-17T18:24:44.699Z,5.88
2022-08-17T18:27:38.430Z,6.00
2022-08-17T18:30:14.470Z,5.93
2022-08-17T18:32:43.606Z,7.00
2022-08-17T18:35:16.390Z,6.97
2022-08-17T18:37:46.800Z,7.00
2022-08-17T18:40:16.938Z,7.70
2022-08-17T18:43:06.885Z,8.27
2022-08-17T18:45:33.850Z,9.27
2022-08-17T18:48:01.814Z,8.20
2022-08-17T18:50:43.671Z,6.85
2022-08-17T18:53:30.351Z,7.45
2022-08-17T18:56:34.360Z,9.77
2022-08-17T18:59:28.198Z,11.07
2022-08-17T19:02:38.624Z,9.77
2022-08-17T19:05:28.578Z,9.98
2022-08-17T19:08:34.279Z,11.57
2022-08-17T19:11:21.329Z,12.45
2022-08-17T19:14:00.867Z,11.95
2022-08-17T19:16:45.871Z,11.68
2022-08-17T19:19:23.538Z,10.77
2022-08-17T19:22:27.771Z,9.10
2022-08-17T19:25:06.005Z,16.05
2022-08-17T19:27:49.234Z,11.63
2022-08-17T19:30:17.492Z,10.70
2022-08-17T19:32:44.296Z,9.27
2022-08-17T19:35:17.326Z,8.55
2022-08-17T19:38:08.073Z,10.10
2022-08-17T19:41:00.742Z,11.88
2022-08-17T19:43:54.514Z,10.00
2022-08-17T19:46:56.167Z,10.90
2022-08-17T19:49:46.641Z,10.88
2022-08-17T19:52:37.577Z,10.80
2022-08-17T19:55:23.105Z,10.90
2022-08-17T19:58:25.316Z,12.38
2022-08-17T20:00:54.278Z,10.73
2022-08-17T20:03:53.324Z,13.80
2022-08-17T20:06:22.179Z,16.05
2022-08-17T20:09:15.404Z,14.85
2022-08-17T20:11:54.868Z,16.80
2022-08-17T20:14:30.879Z,16.80
2022-08-17T20:17:02.359Z,14.68
2022-08-17T20:19:52.091Z,13.95
2022-08-17T20:22:54.230Z,13.23
2022-08-17T20:25:28.137Z,19.45
2022-08-17T20:28:06.871Z,23.23
2022-08-17T20:30:37.632Z,22.38
2022-08-17T20:33:08.336Z,17.10
2022-08-17T20:35:40.493Z,17.85
2022-08-17T20:38:14.356Z,26.13
2022-08-17T20:41:04.023Z,23.48
2022-08-17T20:43:33.598Z,22.85
2022-08-17T20:46:12.455Z,20.83
2022-08-17T20:48:43.864Z,16.70
2022-08-17T20:51:34.678Z,19.55
2022-08-17T20:56:53.718Z,17.30
2022-08-17T20:59:27.567Z,21.98
2022-08-17T21:02:22.868Z,23.08
2022-08-17T21:04:56.423Z,22.65
2022-08-17T21:07:30.917Z,26.27
2022-08-17T21:10:29.277Z,24.60
2022-08-17T21:13:25.381Z,18.63
2022-08-17T21:15:58.932Z,24.05
2022-08-17T21:18:38.859Z,19.65
2022-08-17T21:21:34.357Z,29.27
2022-08-17T21:24:13.245Z,22.52
2022-08-17T21:27:08.355Z,26.75
2022-08-17T21:30:11.789Z,22.05
2022-08-17T21:32:42.173Z,19.33
2022-08-17T21:35:23.386Z,25.38
2022-08-17T21:38:02.919Z,30.15
2022-08-17T21:40:31.776Z,24.40
2022-08-17T21:43:16.911Z,25.30
2022-08-17T21:45:53.783Z,22.70
2022-08-17T21:48:24.517Z,22.55
2022-08-17T21:50:57.792Z,21.20
2022-08-17T21:53:46.669Z,21.63
2022-08-17T21:56:40.320Z,26.98
2022-08-17T21:59:24.398Z,23.50
2022-08-17T22:02:03.651Z,24.63
2022-08-17T22:04:39.675Z,19.95
2022-08-17T22:07:13.200Z,20.00
2022-08-17T22:09:49.076Z,26.50
2022-08-17T22:12:17.259Z,27.23
2022-08-17T22:14:52.847Z,22.70
2022-08-17T22:17:29.732Z,24.10
2022-08-17T22:20:10.485Z,17.60
2022-08-17T22:23:04.950Z,18.17
2022-08-17T22:25:41.592Z,19.98
2022-08-17T22:28:10.924Z,27.02
2022-08-17T22:30:41.075Z,20.38
2022-08-17T22:33:36.947Z,15.73
2022-08-17T22:36:23.034Z,23.40
2022-08-17T22:39:00.619Z,25.77
2022-08-17T22:41:40.554Z,20.85
2022-08-17T22:44:37.662Z,22.23
2022-08-17T22:47:38.753Z,22.63
2022-08-17T22:50:14.237Z,20.42
2022-08-17T22:53:03.230Z,21.45
2022-08-17T22:55:52.437Z,18.83
2022-08-17T22:58:42.920Z,19.77
2022-08-17T23:01:23.616Z,23.35
2022-08-17T23:04:05.942Z,24.92
2022-08-17T23:06:39.499Z,20.95
2022-08-17T23:09:11.929Z,19.95
2022-08-17T23:11:49.062Z,20.27
2022-08-17T23:14:19.178Z,32.15
2022-08-17T23:16:47.331Z,22.48
2022-08-17T23:19:17.605Z,15.63
2022-08-17T23:21:45.178Z,27.13
2022-08-17T23:24:17.039Z,17.70
2022-08-17T23:26:43.910Z,18.20
2022-08-17T23:29:10.901Z,20.42
2022-08-17T23:31:38.697Z,18.15
2022-08-17T23:34:10.093Z,23.00
2022-08-17T23:36:37.139Z,17.70
2022-08-17T23:39:04.967Z,16.50
2022-08-17T23:41:35.396Z,19.42
2022-08-17T23:44:04.383Z,17.30
2022-08-17T23:46:31.338Z,17.35
2022-08-17T23:48:59.544Z,17.35
2022-08-17T23:51:37.113Z,17.07
2022-08-17T23:54:27.927Z,13.82
2022-08-17T23:56:55.057Z,24.42
2022-08-17T23:59:23.026Z,18.08
